Time;durP1;ratioP1;P1;durP2;ratioP2;P2;SDS_P1;SDS_P2;PMS_P1;PMS_P2;Temp;Humidity;BMP_temperature;BMP_pressure;BME280_temperature;BME280_humidity;BME280_pressure;Samples;Min_cycle;Max_cycle;Signal;HPM_P1;HPM_P2
2023/07/27 00:00:53;;;;;;;8.65;5.07;;;14.90;99.90;;;;;;6214338;23;20460;-70
2023/07/27 00:03:18;;;;;;;11.18;4.97;;;14.80;99.90;;;;;;6214329;23;20028;-71
2023/07/27 00:05:45;;;;;;;9.23;5.03;;;14.80;99.90;;;;;;6214231;23;20027;-71
2023/07/27 00:08:10;;;;;;;9.60;5.45;;;14.90;99.90;;;;;;6213613;23;20501;-71
2023/07/27 00:10:36;;;;;;;7.70;4.70;;;14.90;99.90;;;;;;6213996;23;20024;-71
2023/07/27 00:13:03;;;;;;;8.65;5.13;;;14.90;99.90;;;;;;6241163;23;20664;-71
2023/07/27 00:15:28;;;;;;;8.73;5.13;;;14.90;99.90;;;;;;6214012;23;20444;-71
2023/07/27 00:17:54;;;;;;;8.98;5.20;;;15.00;99.90;;;;;;6189048;23;20020;-71
2023/07/27 00:20:20;;;;;;;7.97;4.90;;;15.00;99.90;;;;;;6219785;22;20062;-71
2023/07/27 00:22:46;;;;;;;8.10;4.97;;;15.00;99.90;;;;;;6271350;22;20024;-70
2023/07/27 00:25:12;;;;;;;7.45;4.82;;;14.90;99.90;;;;;;6269759;22;20055;-71
2023/07/27 00:27:37;;;;;;;9.10;6.38;;;14.90;99.90;;;;;;6269931;22;20083;-71
2023/07/27 00:30:03;;;;;;;9.02;5.35;;;14.90;99.90;;;;;;6269870;22;20403;-71
2023/07/27 00:32:29;;;;;;;10.63;5.57;;;14.80;99.90;;;;;;6270053;22;20023;-71
2023/07/27 00:34:55;;;;;;;9.40;5.53;;;14.80;99.90;;;;;;6269898;22;20157;-71
2023/07/27 00:37:21;;;;;;;9.80;5.15;;;14.80;99.90;;;;;;6269569;22;20020;-71
2023/07/27 00:39:46;;;;;;;7.40;5.03;;;14.80;99.90;;;;;;6270164;22;20616;-71
2023/07/27 00:42:12;;;;;;;8.25;4.78;;;14.90;99.90;;;;;;6270239;22;20023;-71
2023/07/27 00:44:38;;;;;;;10.90;5.38;;;14.90;99.90;;;;;;6270887;22;20094;-71
2023/07/27 00:47:05;;;;;;;7.18;4.90;;;14.90;99.90;;;;;;6270304;22;20343;-71
2023/07/27 00:49:31;;;;;;;7.47;5.32;;;14.90;99.90;;;;;;6271794;22;20078;-71
2023/07/27 00:51:58;;;;;;;7.55;4.95;;;15.00;99.90;;;;;;6269696;22;20380;-71
2023/07/27 00:54:24;;;;;;;9.68;5.15;;;15.00;99.90;;;;;;6270299;22;20050;-71
2023/07/27 00:56:50;;;;;;;7.15;4.38;;;15.00;99.90;;;;;;6271822;22;20020;-71
2023/07/27 00:59:16;;;;;;;8.23;4.65;;;15.10;99.90;;;;;;6270295;22;20030;-71
2023/07/27 01:01:42;;;;;;;9.15;4.95;;;15.10;99.90;;;;;;6270000;22;20551;-71
2023/07/27 01:04:08;;;;;;;8.43;4.75;;;15.10;99.90;;;;;;6269939;22;20047;-70
2023/07/27 01:06:34;;;;;;;6.97;4.78;;;15.10;99.90;;;;;;6269685;22;20022;-71
2023/07/27 01:09:00;;;;;;;7.25;4.82;;;15.10;99.90;;;;;;6270050;22;20411;-70
2023/07/27 01:11:26;;;;;;;5.38;4.13;;;15.10;99.90;;;;;;6270025;22;20023;-71
2023/07/27 01:14:17;;;;;;;6.72;4.50;;;15.10;99.90;;;;;;6272101;22;20023;-71
2023/07/27 01:16:47;;;;;;;8.00;4.50;;;15.10;99.90;;;;;;6269666;22;20027;-70
2023/07/27 01:19:52;;;;;;;9.02;5.07;;;15.00;99.90;;;;;;6270027;22;20019;-71
2023/07/27 01:22:37;;;;;;;8.63;4.97;;;15.00;99.90;;;;;;6269671;22;20024;-70
2023/07/27 01:25:24;;;;;;;8.63;4.90;;;15.00;99.90;;;;;;6269906;22;20034;-71
2023/07/27 01:28:05;;;;;;;9.90;5.20;;;14.90;99.90;;;;;;6270262;22;20103;-71
2023/07/27 01:31:01;;;;;;;6.20;3.95;;;14.90;99.90;;;;;;6244376;22;20400;-71
2023/07/27 01:33:33;;;;;;;8.10;4.82;;;15.00;99.90;;;;;;6271799;22;20012;-71
2023/07/27 01:36:08;;;;;;;6.63;4.50;;;14.90;99.90;;;;;;6271443;22;20019;-71
2023/07/27 01:38:39;;;;;;;6.25;4.25;;;14.90;99.90;;;;;;6246243;22;20012;-71
2023/07/27 01:41:08;;;;;;;8.07;4.65;;;14.90;99.90;;;;;;6273409;22;20086;-71
2023/07/27 01:43:35;;;;;;;8.02;4.70;;;14.90;99.90;;;;;;6271606;22;20030;-70
2023/07/27 01:46:03;;;;;;;6.72;4.22;;;14.90;99.90;;;;;;6271420;22;20410;-71
2023/07/27 01:48:30;;;;;;;8.48;4.60;;;14.90;99.90;;;;;;6273127;22;20015;-71
2023/07/27 01:50:56;;;;;;;8.68;4.82;;;14.90;99.90;;;;;;6272707;22;20034;-71
2023/07/27 01:53:24;;;;;;;8.07;5.30;;;14.80;99.90;;;;;;6245876;22;20020;-71
2023/07/27 01:55:51;;;;;;;6.88;4.70;;;14.80;99.90;;;;;;6273088;22;20052;-71
2023/07/27 01:58:18;;;;;;;8.07;4.30;;;14.80;99.90;;;;;;6271540;22;20027;-71
2023/07/27 02:00:44;;;;;;;9.23;5.10;;;14.80;99.90;;;;;;6271292;22;20020;-71
2023/07/27 02:03:11;;;;;;;7.90;4.95;;;14.70;99.90;;;;;;6273434;22;20329;-71
2023/07/27 02:05:37;;;;;;;12.73;4.97;;;14.70;99.90;;;;;;6271387;22;20054;-71
2023/07/27 02:08:02;;;;;;;10.48;4.68;;;14.70;99.90;;;;;;6246042;22;20019;-71
2023/07/27 02:10:30;;;;;;;6.10;4.25;;;14.70;99.90;;;;;;6272823;22;20016;-71
2023/07/27 02:13:04;;;;;;;6.28;4.60;;;14.70;99.90;;;;;;6273077;22;20022;-70
2023/07/27 02:15:36;;;;;;;6.20;4.57;;;14.70;99.90;;;;;;6271032;22;20086;-71
2023/07/27 02:18:08;;;;;;;7.03;4.25;;;14.70;99.90;;;;;;6270993;22;20035;-71
2023/07/27 02:20:36;;;;;;;7.35;4.60;;;14.70;99.90;;;;;;6270967;22;20082;-71
2023/07/27 02:23:04;;;;;;;6.68;5.15;;;14.70;99.90;;;;;;6271065;22;20024;-71
2023/07/27 02:25:31;;;;;;;7.32;4.47;;;14.70;99.90;;;;;;6270716;22;20027;-71
2023/07/27 02:27:56;;;;;;;8.23;5.15;;;14.70;99.90;;;;;;6270969;22;20020;-71
2023/07/27 02:30:22;;;;;;;8.90;5.30;;;14.70;99.90;;;;;;6272432;22;20363;-71
2023/07/27 02:32:48;;;;;;;11.52;5.63;;;14.70;99.90;;;;;;6270659;22;20038;-71
2023/07/27 02:35:14;;;;;;;7.05;4.60;;;14.70;99.90;;;;;;6270913;22;20459;-71
2023/07/27 02:37:39;;;;;;;7.57;4.68;;;14.70;99.90;;;;;;6272616;22;20023;-71
2023/07/27 02:40:06;;;;;;;9.32;5.03;;;14.70;99.90;;;;;;6272364;22;20664;-71
2023/07/27 02:42:31;;;;;;;9.00;4.68;;;14.80;99.90;;;;;;6270811;22;20019;-71
2023/07/27 02:44:57;;;;;;;10.43;5.53;;;14.80;99.90;;;;;;6271000;22;20016;-71
2023/07/27 02:47:23;;;;;;;8.07;4.55;;;14.80;99.90;;;;;;6272305;22;20023;-71
2023/07/27 02:49:48;;;;;;;7.75;4.55;;;14.80;99.90;;;;;;6270598;22;20045;-71
2023/07/27 02:52:14;;;;;;;10.60;5.32;;;14.80;99.90;;;;;;6272429;22;20592;-71
2023/07/27 02:54:40;;;;;;;10.38;5.20;;;14.80;99.90;;;;;;6270735;22;20023;-71
2023/07/27 02:57:06;;;;;;;9.13;5.28;;;14.80;99.90;;;;;;6270740;22;20081;-71
2023/07/27 02:59:31;;;;;;;9.40;5.22;;;14.80;99.90;;;;;;6270748;22;20150;-71
2023/07/27 03:01:57;;;;;;;9.00;5.53;;;14.80;99.90;;;;;;6270460;22;20748;-71
2023/07/27 03:04:23;;;;;;;12.57;5.78;;;14.90;99.90;;;;;;6270523;22;20083;-71
2023/07/27 03:06:48;;;;;;;9.82;5.55;;;14.90;99.90;;;;;;6272251;22;20086;-71
2023/07/27 03:09:14;;;;;;;10.40;6.07;;;14.90;99.90;;;;;;6271309;22;20023;-71
2023/07/27 03:11:40;;;;;;;8.55;5.63;;;14.90;99.90;;;;;;6270630;22;20026;-71
2023/07/27 03:14:06;;;;;;;9.48;6.20;;;14.90;99.90;;;;;;6270509;22;20012;-71
2023/07/27 03:16:32;;;;;;;11.63;5.78;;;14.90;99.90;;;;;;6270057;22;20082;-71
2023/07/27 03:18:57;;;;;;;11.77;5.53;;;14.90;99.90;;;;;;6272389;22;20015;-71
2023/07/27 03:21:23;;;;;;;13.60;6.65;;;14.90;99.90;;;;;;6270080;22;20459;-71
2023/07/27 03:23:49;;;;;;;12.05;5.95;;;14.90;99.90;;;;;;6270286;22;20038;-71
2023/07/27 03:26:16;;;;;;;9.00;6.18;;;14.90;99.90;;;;;;6270015;22;20474;-71
2023/07/27 03:28:42;;;;;;;10.10;6.10;;;14.90;99.90;;;;;;6270209;22;20074;-70
2023/07/27 03:31:34;;;;;;;7.75;5.35;;;14.90;99.90;;;;;;6269892;22;20348;-71
2023/07/27 03:34:03;;;;;;;13.63;5.73;;;15.00;99.90;;;;;;6265046;22;20051;-71
2023/07/27 03:36:28;;;;;;;10.73;5.75;;;14.90;99.90;;;;;;6270032;22;20329;-71
2023/07/27 03:38:54;;;;;;;8.43;5.45;;;14.90;99.90;;;;;;6270110;22;20051;-71
2023/07/27 03:41:20;;;;;;;7.80;5.20;;;14.90;99.90;;;;;;6271720;22;20050;-70
2023/07/27 03:43:45;;;;;;;10.38;5.32;;;14.90;99.90;;;;;;6272217;22;20075;-70
2023/07/27 03:46:11;;;;;;;13.30;6.28;;;14.80;99.90;;;;;;6271854;22;20077;-69
2023/07/27 03:48:37;;;;;;;10.07;5.43;;;14.80;99.90;;;;;;6272097;22;20441;-69
2023/07/27 03:51:03;;;;;;;9.63;6.68;;;14.80;99.90;;;;;;6271516;22;20122;-68
2023/07/27 03:53:30;;;;;;;11.90;6.38;;;14.70;99.90;;;;;;6270034;22;20159;-69
2023/07/27 03:55:56;;;;;;;13.15;5.90;;;14.70;99.90;;;;;;6271567;22;20016;-68
2023/07/27 03:58:22;;;;;;;10.25;6.30;;;14.70;99.90;;;;;;6272091;22;20022;-68
2023/07/27 04:00:47;;;;;;;10.10;5.70;;;14.70;99.90;;;;;;6271924;22;20016;-68
2023/07/27 04:03:13;;;;;;;9.02;5.80;;;14.70;99.90;;;;;;6271864;22;20393;-68
2023/07/27 04:05:39;;;;;;;14.07;6.72;;;14.60;99.90;;;;;;6271785;22;20016;-68
2023/07/27 04:08:05;;;;;;;9.75;6.40;;;14.60;99.90;;;;;;6271433;22;20041;-67
2023/07/27 04:10:30;;;;;;;7.85;6.05;;;14.60;99.90;;;;;;6271337;22;20101;-67
2023/07/27 04:12:57;;;;;;;9.23;6.40;;;14.60;99.90;;;;;;6269794;22;20019;-67
2023/07/27 04:15:23;;;;;;;10.35;6.13;;;14.60;99.90;;;;;;6271550;22;20433;-68
2023/07/27 04:17:49;;;;;;;9.63;5.38;;;14.70;99.90;;;;;;6271743;22;20055;-68
2023/07/27 04:20:15;;;;;;;9.02;6.07;;;14.60;99.90;;;;;;6271120;22;20059;-67
2023/07/27 04:22:40;;;;;;;9.88;6.07;;;14.60;99.90;;;;;;6270536;22;20030;-68
2023/07/27 04:25:07;;;;;;;10.60;6.03;;;14.50;99.90;;;;;;6270097;22;20082;-68
2023/07/27 04:27:32;;;;;;;9.43;6.10;;;14.50;99.90;;;;;;6217880;22;20019;-68
2023/07/27 04:29:58;;;;;;;9.13;6.20;;;14.50;99.90;;;;;;6242450;22;20443;-68
2023/07/27 04:32:24;;;;;;;10.10;6.10;;;14.50;99.90;;;;;;6270190;22;20015;-68
2023/07/27 04:34:49;;;;;;;9.35;6.13;;;14.50;99.90;;;;;;6270426;22;20105;-68
2023/07/27 04:37:15;;;;;;;10.73;5.72;;;14.40;99.90;;;;;;6270517;22;20754;-67
2023/07/27 04:39:41;;;;;;;12.07;6.13;;;14.50;99.90;;;;;;6270463;22;20016;-67
2023/07/27 04:42:07;;;;;;;10.70;6.30;;;14.40;99.90;;;;;;6270223;22;20027;-67
2023/07/27 04:44:33;;;;;;;8.30;5.43;;;14.40;99.90;;;;;;6269881;22;20015;-67
2023/07/27 04:46:59;;;;;;;10.50;6.03;;;14.40;99.90;;;;;;6270414;22;20004;-67
2023/07/27 04:49:24;;;;;;;10.30;6.22;;;14.50;99.90;;;;;;6270316;22;20384;-67
2023/07/27 04:51:50;;;;;;;9.10;5.13;;;14.50;99.90;;;;;;6270184;22;20030;-67
2023/07/27 04:54:16;;;;;;;9.82;5.70;;;14.50;99.90;;;;;;6270540;22;20026;-67
2023/07/27 04:56:41;;;;;;;10.30;5.72;;;14.50;99.90;;;;;;6270404;22;20020;-68
2023/07/27 04:59:07;;;;;;;6.97;4.88;;;14.50;99.90;;;;;;6270427;22;20016;-68
2023/07/27 05:01:33;;;;;;;11.98;5.68;;;14.50;99.90;;;;;;6270478;22;20106;-67
2023/07/27 05:03:59;;;;;;;8.40;5.10;;;14.40;99.90;;;;;;6269343;22;20351;-68
2023/07/27 05:06:24;;;;;;;9.65;5.22;;;14.40;99.90;;;;;;6269574;22;20023;-68
2023/07/27 05:08:50;;;;;;;8.52;5.57;;;14.50;99.90;;;;;;6270882;22;20118;-68
2023/07/27 05:11:16;;;;;;;7.78;5.03;;;14.50;99.90;;;;;;6271070;22;20098;-68
2023/07/27 05:13:42;;;;;;;8.23;5.10;;;14.50;99.90;;;;;;6270829;22;20016;-68
2023/07/27 05:16:07;;;;;;;7.65;5.35;;;14.50;99.90;;;;;;6271647;22;20034;-68
2023/07/27 05:18:33;;;;;;;11.50;5.35;;;14.40;99.90;;;;;;6270964;22;20142;-68
2023/07/27 05:20:59;;;;;;;10.65;5.80;;;14.40;99.90;;;;;;6203656;22;1330532;-68
2023/07/27 05:23:25;;;;;;;8.90;5.50;;;14.40;99.90;;;;;;6242647;23;20514;-68
2023/07/27 05:25:50;;;;;;;10.45;6.15;;;14.50;99.90;;;;;;6242404;23;20111;-68
2023/07/27 05:28:16;;;;;;;8.27;5.85;;;14.40;99.90;;;;;;6242527;23;20024;-69
2023/07/27 05:30:42;;;;;;;10.73;6.10;;;14.50;99.90;;;;;;6215866;23;20020;-68
2023/07/27 05:33:08;;;;;;;8.80;5.50;;;14.50;99.90;;;;;;6243024;23;20012;-68
2023/07/27 05:35:34;;;;;;;9.45;5.70;;;14.50;99.90;;;;;;6242752;23;20015;-68
2023/07/27 05:37:59;;;;;;;7.75;5.38;;;14.50;99.90;;;;;;6243156;23;20020;-68
2023/07/27 05:40:25;;;;;;;11.80;6.00;;;14.50;99.90;;;;;;6242929;23;20016;-68
2023/07/27 05:42:51;;;;;;;7.80;5.90;;;14.50;99.90;;;;;;6242317;23;20031;-68
2023/07/27 05:45:17;;;;;;;7.80;5.70;;;14.60;99.90;;;;;;6242566;23;20024;-69
2023/07/27 05:47:42;;;;;;;10.02;6.30;;;14.60;99.90;;;;;;6242824;23;20087;-69
2023/07/27 05:50:09;;;;;;;9.90;6.47;;;14.60;99.90;;;;;;6215592;23;20025;-68
2023/07/27 05:52:35;;;;;;;10.27;6.13;;;14.60;99.90;;;;;;6242754;23;20016;-68
2023/07/27 05:55:01;;;;;;;9.52;6.03;;;14.60;99.90;;;;;;6242787;23;20349;-68
2023/07/27 05:57:26;;;;;;;10.88;7.10;;;14.70;99.90;;;;;;6242402;23;20075;-68
2023/07/27 05:59:52;;;;;;;10.23;7.18;;;14.70;99.90;;;;;;6215643;23;20392;-69
2023/07/27 06:02:18;;;;;;;11.25;8.02;;;14.70;99.90;;;;;;6242218;23;20016;-67
2023/07/27 06:04:43;;;;;;;13.73;7.50;;;14.70;99.90;;;;;;6242639;23;20024;-67
2023/07/27 06:07:09;;;;;;;12.25;7.53;;;14.70;99.90;;;;;;6241969;23;20031;-67
2023/07/27 06:09:36;;;;;;;11.15;7.57;;;14.70;99.90;;;;;;6243631;23;20023;-68
2023/07/27 06:12:11;;;;;;;10.98;7.82;;;14.70;99.90;;;;;;6242812;23;20020;-68
2023/07/27 06:14:40;;;;;;;14.20;7.72;;;14.70;99.90;;;;;;6243059;23;20016;-68
2023/07/27 06:17:06;;;;;;;12.13;7.57;;;14.70;99.90;;;;;;6215737;23;20135;-68
2023/07/27 06:19:32;;;;;;;13.05;8.10;;;14.70;99.90;;;;;;6215656;23;20047;-68
2023/07/27 06:21:58;;;;;;;13.40;8.00;;;14.70;99.90;;;;;;6266083;22;20514;-68
2023/07/27 06:24:24;;;;;;;12.70;8.80;;;14.70;99.90;;;;;;6273486;22;20012;-68
2023/07/27 06:26:50;;;;;;;13.07;8.15;;;14.70;99.90;;;;;;6273042;22;20038;-68
2023/07/27 06:29:16;;;;;;;11.68;8.07;;;14.70;99.90;;;;;;6274090;22;20122;-69
2023/07/27 06:31:41;;;;;;;13.43;8.38;;;14.80;99.90;;;;;;6273597;22;20394;-69
2023/07/27 06:34:07;;;;;;;11.18;8.10;;;14.80;99.90;;;;;;6274292;22;20038;-68
2023/07/27 06:36:33;;;;;;;12.88;8.95;;;14.80;99.90;;;;;;6273264;22;20347;-68
2023/07/27 06:38:59;;;;;;;13.63;9.20;;;14.70;99.90;;;;;;6272585;22;20019;-67
2023/07/27 06:41:25;;;;;;;14.30;8.30;;;14.80;99.90;;;;;;6272483;22;20394;-67
2023/07/27 06:43:54;;;;;;;14.13;8.85;;;14.80;99.90;;;;;;6245182;22;20020;-67
2023/07/27 06:46:20;;;;;;;12.50;8.48;;;14.90;99.90;;;;;;6272195;22;20517;-67
2023/07/27 06:48:46;;;;;;;13.50;8.70;;;14.80;99.90;;;;;;6245575;22;20023;-67
2023/07/27 06:51:13;;;;;;;15.45;9.77;;;14.90;99.90;;;;;;6272721;22;20081;-67
2023/07/27 06:53:39;;;;;;;11.70;8.77;;;14.90;99.90;;;;;;6273595;22;20022;-67
2023/07/27 06:56:05;;;;;;;13.60;8.88;;;14.90;99.90;;;;;;6272653;22;20603;-67
2023/07/27 06:58:31;;;;;;;13.13;8.80;;;14.90;99.90;;;;;;6272028;22;20020;-67
2023/07/27 07:00:59;;;;;;;12.02;8.35;;;14.90;99.90;;;;;;6272346;22;20020;-67
2023/07/27 07:03:25;;;;;;;13.98;9.85;;;15.00;99.90;;;;;;6272816;22;20065;-67
2023/07/27 07:05:53;;;;;;;11.27;7.72;;;15.10;99.90;;;;;;6272221;22;20451;-67
2023/07/27 07:08:19;;;;;;;11.75;8.15;;;15.10;99.90;;;;;;6271679;22;20023;-66
2023/07/27 07:10:45;;;;;;;11.88;8.40;;;15.10;99.90;;;;;;6243857;22;20024;-66
2023/07/27 07:13:11;;;;;;;13.32;8.50;;;15.00;99.90;;;;;;6270980;22;20511;-66
2023/07/27 07:15:36;;;;;;;11.02;8.07;;;15.00;99.90;;;;;;6270681;22;20078;-66
2023/07/27 07:18:02;;;;;;;12.60;8.18;;;14.90;99.90;;;;;;6271688;22;20020;-66
2023/07/27 07:20:28;;;;;;;11.95;8.30;;;15.00;99.90;;;;;;6271407;22;20023;-66
2023/07/27 07:22:54;;;;;;;10.80;7.85;;;15.00;99.90;;;;;;6271571;22;20022;-66
2023/07/27 07:25:20;;;;;;;11.00;8.10;;;15.00;99.90;;;;;;6244674;22;20507;-66
2023/07/27 07:27:46;;;;;;;10.93;8.32;;;15.10;99.90;;;;;;6271590;22;20019;-66
2023/07/27 07:30:12;;;;;;;11.20;8.63;;;15.10;99.90;;;;;;6272043;22;20026;-66
2023/07/27 07:32:37;;;;;;;12.32;8.30;;;15.00;99.90;;;;;;6244402;22;20620;-66
2023/07/27 07:35:04;;;;;;;12.82;8.85;;;15.10;99.90;;;;;;6271790;22;20070;-66
2023/07/27 07:37:29;;;;;;;10.95;8.15;;;15.10;99.90;;;;;;6271624;22;20420;-66
2023/07/27 07:39:55;;;;;;;10.93;7.80;;;15.10;99.90;;;;;;6272279;22;20031;-66
2023/07/27 07:42:21;;;;;;;9.20;6.82;;;15.10;99.90;;;;;;6271731;22;20043;-66
2023/07/27 07:44:47;;;;;;;10.25;7.05;;;15.10;99.90;;;;;;6272175;22;20101;-66
2023/07/27 07:47:13;;;;;;;9.38;6.88;;;15.10;99.90;;;;;;6271671;22;20019;-66
2023/07/27 07:49:38;;;;;;;9.07;6.90;;;15.20;99.90;;;;;;6271627;22;20057;-66
2023/07/27 07:52:05;;;;;;;8.73;6.38;;;15.20;99.90;;;;;;6244181;22;20015;-66
2023/07/27 07:54:31;;;;;;;9.05;6.45;;;15.20;99.90;;;;;;6272083;22;20026;-67
2023/07/27 07:56:56;;;;;;;8.35;6.13;;;15.20;99.90;;;;;;6244398;22;20035;-67
2023/07/27 07:59:23;;;;;;;8.60;5.93;;;15.20;99.90;;;;;;6271963;22;20095;-67
2023/07/27 08:01:49;;;;;;;7.35;5.90;;;15.20;99.90;;;;;;6272089;22;20023;-68
2023/07/27 08:04:15;;;;;;;8.68;6.25;;;15.20;99.90;;;;;;6271684;22;20443;-68
2023/07/27 08:06:41;;;;;;;7.72;5.85;;;15.20;99.90;;;;;;6244087;22;20058;-69
2023/07/27 08:09:07;;;;;;;8.90;6.60;;;15.20;99.90;;;;;;6219170;22;20391;-68
2023/07/27 08:11:33;;;;;;;8.43;5.93;;;15.20;99.90;;;;;;6244274;22;20329;-69
2023/07/27 08:14:01;;;;;;;7.50;5.88;;;15.20;99.90;;;;;;6271271;22;20028;-67
2023/07/27 08:16:28;;;;;;;8.40;5.85;;;15.20;99.90;;;;;;6271175;22;20470;-67
2023/07/27 08:18:54;;;;;;;7.85;4.65;;;15.20;99.90;;;;;;6244322;22;20047;-69
2023/07/27 08:21:20;;;;;;;7.47;6.53;;;15.40;99.90;;;;;;6255179;22;20016;-67
2023/07/27 08:23:46;;;;;;;7.28;6.57;;;15.50;99.90;;;;;;6240387;23;20016;-68
2023/07/27 08:26:12;;;;;;;7.43;6.30;;;15.50;99.90;;;;;;6213326;23;20027;-67
2023/07/27 08:28:38;;;;;;;7.80;6.22;;;15.50;99.90;;;;;;6240890;23;20089;-67
2023/07/27 08:31:04;;;;;;;7.43;6.25;;;15.40;99.90;;;;;;6240710;23;20028;-67
2023/07/27 08:33:30;;;;;;;8.35;6.00;;;15.40;99.90;;;;;;6213635;23;20024;-67
2023/07/27 08:35:57;;;;;;;8.23;5.60;;;15.40;99.90;;;;;;6240754;23;20020;-67
2023/07/27 08:38:24;;;;;;;6.72;5.93;;;15.40;99.90;;;;;;6239509;23;20511;-67
2023/07/27 08:40:57;;;;;;;6.30;5.70;;;15.40;99.90;;;;;;6241414;23;20020;-67
2023/07/27 08:43:24;;;;;;;7.80;5.70;;;15.40;99.90;;;;;;6240952;23;20020;-67
2023/07/27 08:45:51;;;;;;;6.38;5.65;;;15.50;99.90;;;;;;6241148;23;20032;-67
2023/07/27 08:48:17;;;;;;;6.05;5.40;;;15.50;99.90;;;;;;6240873;23;20016;-66
2023/07/27 08:50:44;;;;;;;6.95;5.60;;;15.50;99.90;;;;;;6240507;23;20052;-66
2023/07/27 08:53:14;;;;;;;5.95;5.35;;;15.50;99.90;;;;;;6241157;23;20020;-66
2023/07/27 08:55:40;;;;;;;5.70;5.13;;;15.50;99.90;;;;;;6241178;23;20026;-66
2023/07/27 08:58:07;;;;;;;5.43;4.85;;;15.50;99.90;;;;;;6240957;23;20471;-66
2023/07/27 09:00:33;;;;;;;5.82;5.22;;;15.50;99.90;;;;;;6240748;23;20027;-66
2023/07/27 09:02:59;;;;;;;6.93;5.07;;;15.50;99.90;;;;;;6240872;23;20028;-66
2023/07/27 09:05:57;;;;;;;8.30;5.45;;;15.50;99.90;;;;;;6240758;23;20070;-66
2023/07/27 09:08:27;;;;;;;5.75;4.97;;;15.60;99.90;;;;;;6240119;23;20023;-66
2023/07/27 09:10:53;;;;;;;6.47;5.82;;;15.60;99.90;;;;;;6240633;23;20070;-67
2023/07/27 09:13:19;;;;;;;5.97;5.43;;;15.60;99.90;;;;;;6240188;23;20012;-67
2023/07/27 09:15:45;;;;;;;6.60;5.63;;;15.70;99.90;;;;;;6240349;23;20020;-66
2023/07/27 09:18:14;;;;;;;6.10;5.43;;;15.70;99.90;;;;;;6240108;23;20105;-66
2023/07/27 09:20:40;;;;;;;5.60;5.07;;;15.70;99.90;;;;;;6245792;22;20054;-67
2023/07/27 09:23:17;;;;;;;6.18;4.82;;;15.80;99.90;;;;;;6271347;22;20015;-67
2023/07/27 09:25:54;;;;;;;5.40;4.90;;;15.80;99.90;;;;;;6270859;22;20058;-67
2023/07/27 09:28:25;;;;;;;5.28;4.85;;;15.80;99.90;;;;;;6271583;22;20016;-67
2023/07/27 09:30:50;;;;;;;5.10;4.60;;;15.80;99.90;;;;;;6271742;22;20031;-67
2023/07/27 09:33:21;;;;;;;4.80;4.40;;;15.80;99.90;;;;;;6244176;22;20023;-67
2023/07/27 09:35:49;;;;;;;6.38;4.85;;;15.90;99.90;;;;;;6244294;22;20030;-67
2023/07/27 09:38:15;;;;;;;7.65;4.90;;;16.00;99.90;;;;;;6271407;22;20020;-67
2023/07/27 09:40:41;;;;;;;5.97;5.30;;;16.00;99.90;;;;;;6271431;22;20092;-67
2023/07/27 09:43:08;;;;;;;5.57;4.50;;;16.00;99.90;;;;;;6271499;22;20098;-67
2023/07/27 09:45:37;;;;;;;4.88;4.38;;;16.10;99.90;;;;;;6271591;22;20335;-67
2023/07/27 09:48:03;;;;;;;4.53;4.13;;;16.10;99.90;;;;;;6271080;22;20029;-68
2023/07/27 09:50:32;;;;;;;3.88;3.58;;;16.20;99.90;;;;;;6271214;22;20095;-68
2023/07/27 09:53:00;;;;;;;5.38;3.88;;;16.20;99.90;;;;;;6272126;22;20043;-67
2023/07/27 09:55:29;;;;;;;4.43;3.30;;;16.20;99.90;;;;;;6272553;22;20026;-68
2023/07/27 09:57:57;;;;;;;4.32;3.70;;;16.30;99.90;;;;;;6273696;22;20356;-68
2023/07/27 10:00:23;;;;;;;4.22;3.55;;;16.30;99.90;;;;;;6273284;22;20047;-68
2023/07/27 10:02:49;;;;;;;4.70;3.45;;;16.30;99.90;;;;;;6273165;22;20022;-68
2023/07/27 10:05:15;;;;;;;3.97;3.67;;;16.40;99.90;;;;;;6273019;22;20016;-68
2023/07/27 10:07:42;;;;;;;4.30;3.95;;;16.40;99.90;;;;;;6273302;22;20185;-68
2023/07/27 10:10:42;;;;;;;5.13;3.97;;;16.50;99.90;;;;;;6273091;22;20447;-68
2023/07/27 10:13:12;;;;;;;3.92;3.63;;;16.50;99.90;;;;;;6246032;22;20023;-68
2023/07/27 10:15:43;;;;;;;3.92;3.63;;;16.50;99.90;;;;;;6245817;22;20047;-68
2023/07/27 10:18:14;;;;;;;4.40;4.00;;;16.50;99.90;;;;;;6273015;22;20020;-69
2023/07/27 10:20:40;;;;;;;3.75;3.45;;;16.60;99.90;;;;;;6245280;22;20085;-69
2023/07/27 10:23:18;;;;;;;4.00;3.70;;;16.60;99.90;;;;;;6272925;22;20020;-69
2023/07/27 10:25:55;;;;;;;4.25;3.85;;;16.60;99.90;;;;;;6219551;22;20466;-69
2023/07/27 10:28:43;;;;;;;7.90;3.80;;;16.70;99.90;;;;;;6273527;22;20094;-68
2023/07/27 10:31:24;;;;;;;3.78;3.47;;;16.70;99.90;;;;;;6273062;22;20055;-69
2023/07/27 10:33:53;;;;;;;4.15;3.75;;;16.70;99.90;;;;;;6245752;22;20027;-68
2023/07/27 10:36:20;;;;;;;3.42;3.13;;;16.80;99.90;;;;;;6245941;22;20027;-69
2023/07/27 10:38:56;;;;;;;3.63;3.33;;;16.80;99.90;;;;;;6271423;22;20351;-68
2023/07/27 10:41:24;;;;;;;3.40;3.10;;;16.80;99.90;;;;;;6272786;22;20337;-68
2023/07/27 10:44:08;;;;;;;3.20;2.88;;;16.90;99.90;;;;;;6272592;22;20022;-68
2023/07/27 10:46:38;;;;;;;3.58;3.08;;;16.90;99.90;;;;;;6272728;22;20046;-68
2023/07/27 10:49:09;;;;;;;2.65;2.45;;;16.90;99.90;;;;;;6273184;22;20023;-68
2023/07/27 10:51:35;;;;;;;2.63;2.42;;;16.90;99.90;;;;;;6273079;22;20114;-68
2023/07/27 10:54:01;;;;;;;3.05;2.75;;;16.90;99.90;;;;;;6245633;22;20057;-68
2023/07/27 10:56:27;;;;;;;2.78;2.58;;;16.90;99.90;;;;;;6272822;22;20069;-69
2023/07/27 10:59:00;;;;;;;3.22;2.92;;;16.90;99.90;;;;;;6273163;22;20019;-69
2023/07/27 11:01:32;;;;;;;3.20;2.58;;;17.00;99.90;;;;;;6272669;22;20046;-68
2023/07/27 11:03:58;;;;;;;3.22;2.75;;;17.00;99.90;;;;;;6273347;22;20086;-68
2023/07/27 11:06:28;;;;;;;2.72;2.53;;;17.00;99.90;;;;;;6272363;22;20019;-68
2023/07/27 11:08:55;;;;;;;2.75;2.55;;;17.00;99.90;;;;;;6272578;22;20141;-68
2023/07/27 11:11:24;;;;;;;3.83;2.40;;;17.10;99.90;;;;;;6272978;22;20066;-67
2023/07/27 11:13:50;;;;;;;3.17;2.88;;;17.10;99.90;;;;;;6272946;22;20047;-67
2023/07/27 11:16:16;;;;;;;5.03;3.13;;;17.10;99.90;;;;;;6272974;22;20023;-67
2023/07/27 11:18:43;;;;;;;3.42;3.13;;;17.20;99.90;;;;;;6245533;22;20034;-67
2023/07/27 11:21:13;;;;;;;3.30;3.00;;;17.20;99.90;;;;;;6272603;22;20059;-66
2023/07/27 11:23:41;;;;;;;3.50;3.20;;;17.30;99.90;;;;;;6272908;22;20444;-67
2023/07/27 11:26:06;;;;;;;3.15;2.90;;;17.30;99.90;;;;;;6272976;22;20020;-67
2023/07/27 11:28:34;;;;;;;3.35;3.05;;;17.30;99.90;;;;;;6273157;22;20058;-67
2023/07/27 11:30:59;;;;;;;3.20;2.90;;;17.40;99.90;;;;;;6273181;22;20023;-67
2023/07/27 11:33:32;;;;;;;3.50;3.20;;;17.40;99.90;;;;;;6273610;22;20035;-67
2023/07/27 11:35:59;;;;;;;3.28;2.60;;;17.40;99.90;;;;;;6273350;22;20015;-67
2023/07/27 11:38:25;;;;;;;3.05;2.70;;;17.50;99.90;;;;;;6246598;22;20024;-67
2023/07/27 11:40:54;;;;;;;3.25;2.85;;;17.50;99.90;;;;;;6273216;22;20107;-68
2023/07/27 11:43:20;;;;;;;3.40;3.15;;;17.60;99.90;;;;;;6245063;22;20034;-67
2023/07/27 11:45:47;;;;;;;3.30;3.00;;;17.60;99.90;;;;;;6272075;22;20020;-68
2023/07/27 11:48:13;;;;;;;3.38;3.08;;;17.70;99.90;;;;;;6272127;22;20351;-67
2023/07/27 11:50:39;;;;;;;3.20;2.90;;;17.70;99.90;;;;;;6244884;22;20020;-67
2023/07/27 11:53:11;;;;;;;3.25;2.95;;;17.80;99.90;;;;;;6244847;22;20024;-67
2023/07/27 11:55:37;;;;;;;3.55;3.22;;;17.80;99.90;;;;;;6272217;22;20026;-67
2023/07/27 11:58:10;;;;;;;6.13;3.17;;;17.90;99.90;;;;;;6272094;22;20022;-68
2023/07/27 12:00:36;;;;;;;;;;;17.90;99.90;;;;;;6272888;22;20391;-68
2023/07/27 12:03:03;;;;;;;3.65;3.25;;;17.90;99.90;;;;;;6272390;22;20448;-68
2023/07/27 12:05:32;;;;;;;5.10;3.40;;;17.90;99.90;;;;;;6272323;22;20062;-68
2023/07/27 12:07:58;;;;;;;3.72;3.40;;;18.00;99.90;;;;;;6272182;22;20012;-68
2023/07/27 12:10:24;;;;;;;3.90;3.60;;;18.10;99.90;;;;;;6271797;22;20031;-68
2023/07/27 12:13:07;;;;;;;3.90;3.50;;;18.10;99.90;;;;;;6271991;22;20016;-68
2023/07/27 12:15:35;;;;;;;4.40;3.97;;;18.10;99.90;;;;;;6272260;22;20027;-68
2023/07/27 12:18:03;;;;;;;4.15;3.75;;;18.10;99.90;;;;;;6271606;22;20111;-68
2023/07/27 12:20:32;;;;;;;9.88;3.90;;;18.10;99.90;;;;;;6244641;22;20367;-68
2023/07/27 12:22:58;;;;;;;4.53;4.13;;;18.10;99.90;;;;;;6272334;22;20029;-68
2023/07/27 12:25:26;;;;;;;4.25;3.85;;;18.20;99.90;;;;;;6271755;22;20019;-68
2023/07/27 12:27:52;;;;;;;4.20;3.90;;;18.30;99.90;;;;;;6271790;22;20012;-68
2023/07/27 12:30:22;;;;;;;3.70;3.40;;;18.30;99.90;;;;;;6272179;22;20428;-69
2023/07/27 12:32:49;;;;;;;4.63;3.60;;;18.30;99.90;;;;;;6271777;22;20043;-68
2023/07/27 12:35:17;;;;;;;4.32;2.90;;;18.30;99.90;;;;;;6271688;22;20050;-69
2023/07/27 12:37:43;;;;;;;3.28;2.90;;;18.30;99.90;;;;;;6272008;22;20086;-68
2023/07/27 12:40:10;;;;;;;3.65;3.22;;;18.30;99.90;;;;;;6271532;22;20055;-69
2023/07/27 12:42:36;;;;;;;2.97;2.38;;;18.40;99.90;;;;;;6244187;22;20030;-69
2023/07/27 12:45:02;;;;;;;2.70;2.25;;;18.40;99.90;;;;;;6244371;22;20030;-69